Time;durP1;ratioP1;P1;durP2;ratioP2;P2;SDS_P1;SDS_P2;PMS_P1;PMS_P2;Temp;Humidity;BMP_temperature;BMP_pressure;BME280_temperature;BME280_humidity;BME280_pressure;Samples;Min_cycle;Max_cycle;Signal;HPM_P1;HPM_P2
2022/08/08 00:01:48;;;;;;;;;;;;;;;15.72;77.96;102632.94;5072500;28;20032;-76
2022/08/08 00:04:29;;;;;;;10.73;6.32;;;;;;;15.65;78.03;102620.91;5087931;28;19922;-76
2022/08/08 00:07:16;;;;;;;19.08;6.82;;;;;;;15.60;77.90;102629.78;5106181;28;20035;-77
2022/08/08 00:10:08;;;;;;;8.65;6.78;;;;;;;15.52;77.56;102627.06;5109179;28;20039;-76
2022/08/08 00:13:11;;;;;;;10.93;7.05;;;;;;;15.50;77.94;102620.88;5103807;28;20073;-76
2022/08/08 00:15:42;;;;;;;9.57;6.38;;;;;;;15.51;78.43;102625.34;5089676;28;20055;-76
2022/08/08 00:18:38;;;;;;;11.02;7.40;;;;;;;15.54;78.73;102621.38;5098871;28;20055;-76
2022/08/08 00:21:04;;;;;;;9.68;7.10;;;;;;;15.49;78.79;102615.53;5053013;28;20036;-76
2022/08/08 00:23:58;;;;;;;13.77;7.05;;;;;;;15.48;78.23;102613.81;5107721;28;20031;-76
2022/08/08 00:26:31;;;;;;;10.85;7.38;;;;;;;15.33;78.62;102622.06;5097506;28;20031;-76
2022/08/08 00:29:21;;;;;;;13.55;8.18;;;;;;;15.32;79.52;102623.06;5090618;28;20055;-76
2022/08/08 00:31:56;;;;;;;10.77;6.75;;;;;;;15.29;78.05;102617.06;5108243;28;20035;-75
2022/08/08 00:38:08;;;;;;;11.80;6.45;;;;;;;15.31;78.68;102606.69;5089547;28;20063;-75
2022/08/08 00:40:48;;;;;;;14.38;6.63;;;;;;;15.30;78.89;102605.84;5070059;28;20032;-76
2022/08/08 00:43:51;;;;;;;12.73;6.10;;;;;;;15.25;79.04;102608.28;5090181;28;20027;-76
2022/08/08 00:46:43;;;;;;;9.07;6.22;;;;;;;15.23;79.18;102593.81;5078770;28;20030;-77
2022/08/08 00:49:08;;;;;;;9.55;5.82;;;;;;;15.29;78.55;102600.47;5089582;28;20076;-75
2022/08/08 00:51:55;;;;;;;8.00;6.17;;;;;;;15.14;78.79;102594.03;5089842;28;20047;-76
2022/08/08 00:54:31;;;;;;;13.82;7.72;;;;;;;15.13;79.15;102597.84;5098900;28;20474;-75
2022/08/08 00:57:15;;;;;;;9.18;6.15;;;;;;;15.20;79.49;102598.84;5112062;28;20110;-76
2022/08/08 01:00:09;;;;;;;11.88;5.80;;;;;;;15.17;79.10;102604.72;5089250;28;20058;-75
2022/08/08 01:03:10;;;;;;;9.20;5.18;;;;;;;15.13;78.43;102601.47;5112335;28;20037;-72
2022/08/08 01:05:41;;;;;;;7.95;5.38;;;;;;;15.13;78.58;102604.25;5087204;28;20136;-72
2022/08/08 01:08:15;;;;;;;9.73;5.32;;;;;;;15.10;79.52;102601.84;5091894;28;20023;-73
2022/08/08 01:11:17;;;;;;;8.35;5.25;;;;;;;15.11;78.50;102608.22;5093768;28;20035;-73
2022/08/08 01:14:22;;;;;;;8.50;5.22;;;;;;;15.20;79.20;102609.91;5103970;28;20531;-74
2022/08/08 01:17:16;;;;;;;8.55;5.85;;;;;;;15.29;78.95;102608.78;5104688;28;20035;-73
2022/08/08 01:20:19;;;;;;;8.70;5.80;;;;;;;15.27;79.21;102610.88;5091696;28;20039;-74
2022/08/08 01:23:03;;;;;;;7.47;4.90;;;;;;;15.26;78.87;102610.00;5080397;28;20035;-73
2022/08/08 01:25:47;;;;;;;8.30;4.97;;;;;;;15.22;79.60;102607.81;5093916;28;20035;-73
2022/08/08 01:28:30;;;;;;;11.73;5.03;;;;;;;15.28;79.34;102612.59;5092455;28;20089;-74
2022/08/08 01:31:14;;;;;;;5.32;4.60;;;;;;;15.29;79.16;102609.63;5094684;28;20028;-74
2022/08/08 01:33:57;;;;;;;12.57;4.78;;;;;;;15.33;79.22;102599.09;5077106;28;20027;-72
2022/08/08 01:37:00;;;;;;;8.73;5.22;;;;;;;15.31;78.97;102604.78;5094097;28;20040;-73
2022/08/08 01:40:06;;;;;;;9.02;5.30;;;;;;;15.31;78.82;102604.78;5028673;28;20043;-74
2022/08/08 01:43:09;;;;;;;9.25;5.07;;;;;;;15.18;79.46;102607.31;5096233;28;20020;-73
2022/08/08 01:45:44;;;;;;;7.75;4.93;;;;;;;15.19;79.10;102603.50;5092509;28;20097;-73
2022/08/08 01:48:26;;;;;;;9.30;5.00;;;;;;;15.17;79.52;102605.59;5092372;28;20032;-73
2022/08/08 01:51:22;;;;;;;9.02;4.72;;;;;;;15.11;78.89;102605.47;5101649;28;20434;-73
2022/08/08 01:53:55;;;;;;;10.02;5.38;;;;;;;15.12;79.05;102604.44;5096445;28;20043;-74
2022/08/08 01:56:32;;;;;;;8.25;5.07;;;;;;;15.04;79.04;102601.75;5092135;28;20042;-73
2022/08/08 01:59:00;;;;;;;8.05;4.90;;;;;;;15.05;79.68;102611.72;5092307;28;20036;-73
2022/08/08 02:01:59;;;;;;;6.80;4.63;;;;;;;15.04;79.93;102601.75;5092164;28;20428;-74
2022/08/08 02:04:49;;;;;;;8.80;4.80;;;;;;;15.00;79.97;102611.41;5090653;28;20119;-73
2022/08/08 02:07:46;;;;;;;14.05;5.63;;;;;;;14.94;80.61;102614.91;5091753;28;20118;-74
2022/08/08 02:10:45;;;;;;;5.95;4.38;;;;;;;14.96;80.36;102613.69;5083178;28;20080;-74
2022/08/08 02:13:10;;;;;;;10.45;4.90;;;;;;;14.85;81.06;102607.72;5101862;28;20027;-74
2022/08/08 02:15:57;;;;;;;11.50;4.57;;;;;;;14.83;80.15;102604.28;5096870;28;20036;-74
2022/08/08 02:18:37;;;;;;;10.27;4.40;;;;;;;14.74;81.31;102614.50;5091353;28;20399;-74
2022/08/08 02:24:12;;;;;;;11.93;5.13;;;;;;;14.80;81.77;102608.28;5091885;28;20539;-74
2022/08/08 02:26:47;;;;;;;7.93;5.07;;;;;;;14.76;81.28;102606.03;5083752;28;20123;-74
2022/08/08 02:29:25;;;;;;;6.82;5.15;;;;;;;14.73;81.24;102611.94;5077907;28;20031;-74
2022/08/08 02:32:05;;;;;;;7.40;5.50;;;;;;;14.72;80.69;102608.31;5104437;28;20023;-73
2022/08/08 02:34:47;;;;;;;11.98;5.35;;;;;;;14.72;81.44;102610.22;5110397;28;20387;-74
2022/08/08 02:37:24;;;;;;;12.50;6.05;;;;;;;14.73;80.61;102606.44;5102459;28;20028;-74
2022/08/08 02:40:14;;;;;;;9.20;5.38;;;;;;;14.64;80.92;102608.38;5090616;28;20091;-74
2022/08/08 02:43:13;;;;;;;16.08;5.22;;;;;;;14.62;81.37;102615.09;5100032;28;20715;-74
2022/08/08 02:46:11;;;;;;;13.23;5.40;;;;;;;14.61;81.57;102607.84;5091547;28;20467;-74
2022/08/08 02:49:14;;;;;;;8.70;4.93;;;;;;;14.60;81.94;102614.41;5105222;28;20085;-74
2022/08/08 02:52:03;;;;;;;17.63;5.63;;;;;;;14.58;82.50;102600.78;5090357;28;20390;-74
2022/08/08 02:54:47;;;;;;;7.18;5.22;;;;;;;14.54;82.14;102616.00;5091963;28;20053;-74
2022/08/08 02:57:34;;;;;;;9.55;5.55;;;;;;;14.61;82.48;102602.31;5090861;28;20036;-74
2022/08/08 03:00:16;;;;;;;9.03;4.80;;;;;;;14.62;81.94;102602.16;5072380;28;20032;-73
2022/08/08 03:03:19;;;;;;;7.75;5.00;;;;;;;14.54;82.70;102617.88;5090708;28;20055;-72
2022/08/08 03:06:28;;;;;;;5.93;4.03;;;;;;;14.48;82.30;102608.47;5095435;28;20027;-73
2022/08/08 03:09:29;;;;;;;10.68;5.18;;;;;;;14.43;82.35;102608.13;5107563;28;20034;-73
2022/08/08 03:12:19;;;;;;;7.18;4.70;;;;;;;14.43;82.80;102599.84;5073076;28;20535;-73
2022/08/08 03:14:50;;;;;;;11.98;4.88;;;;;;;14.41;82.10;102612.09;5078815;28;20399;-73
2022/08/08 03:17:19;;;;;;;6.32;4.72;;;;;;;14.41;82.73;102604.69;5095261;28;20047;-74
2022/08/08 03:20:05;;;;;;;7.57;4.88;;;;;;;14.37;82.81;102610.75;5108807;28;20036;-73
2022/08/08 03:22:31;;;;;;;6.88;4.57;;;;;;;14.42;84.12;102600.03;5090413;28;20079;-73
2022/08/08 03:25:01;;;;;;;8.33;4.70;;;;;;;14.27;82.61;102604.56;5082654;28;20399;-72
2022/08/08 03:27:52;;;;;;;9.77;4.22;;;;;;;14.14;82.27;102610.59;5110919;28;20110;-72
2022/08/08 03:30:19;;;;;;;6.82;4.15;;;;;;;14.19;81.86;102621.13;5087165;28;20028;-73
2022/08/08 03:35:28;;;;;;;9.10;5.10;;;;;;;14.23;83.76;102617.84;5089962;28;20131;-73
2022/08/08 03:37:54;;;;;;;7.80;4.83;;;;;;;14.23;82.54;102619.75;5075281;28;20111;-73
2022/08/08 03:40:21;;;;;;;7.43;4.50;;;;;;;14.21;83.93;102621.81;5103752;28;20032;-72
2022/08/08 03:42:48;;;;;;;11.90;5.72;;;;;;;14.25;83.13;102629.56;5110919;28;20031;-73
2022/08/08 03:45:17;;;;;;;8.43;4.80;;;;;;;14.23;83.43;102625.25;5106790;28;20028;-73
2022/08/08 03:47:43;;;;;;;13.18;6.78;;;;;;;14.32;85.30;102638.84;5075022;28;20032;-72
2022/08/08 03:50:17;;;;;;;12.60;7.00;;;;;;;14.42;83.85;102630.38;5090004;28;20031;-73
2022/08/08 03:52:43;;;;;;;15.93;7.18;;;;;;;14.42;83.99;102635.88;5098539;28;20035;-72
2022/08/08 03:55:11;;;;;;;15.20;8.63;;;;;;;14.46;84.28;102638.09;5081758;28;20020;-74
2022/08/08 03:57:37;;;;;;;15.60;8.90;;;;;;;14.52;84.00;102636.53;5071869;28;20418;-73
2022/08/08 04:00:11;;;;;;;11.17;8.47;;;;;;;14.53;83.65;102638.25;5070898;28;20028;-74
2022/08/08 04:02:37;;;;;;;13.57;9.05;;;;;;;14.52;84.40;102639.28;5071027;28;20032;-74
2022/08/08 04:05:05;;;;;;;12.97;8.97;;;;;;;14.50;83.54;102644.09;5100389;28;20081;-75
2022/08/08 04:07:38;;;;;;;13.10;8.30;;;;;;;14.53;83.44;102644.63;5089336;28;20034;-73
2022/08/08 04:10:08;;;;;;;17.05;9.80;;;;;;;14.54;84.33;102645.47;5091971;28;20046;-73
2022/08/08 04:12:34;;;;;;;15.15;8.85;;;;;;;14.50;83.68;102644.97;5074610;28;20053;-73
2022/08/08 04:15:00;;;;;;;12.10;9.00;;;;;;;14.48;83.53;102657.22;5089883;28;20028;-74
2022/08/08 04:17:26;;;;;;;11.10;8.02;;;;;;;14.50;83.36;102655.13;5096233;28;20039;-73
2022/08/08 04:19:51;;;;;;;9.77;8.40;;;;;;;14.49;84.96;102656.19;5094619;28;20034;-75
2022/08/08 04:22:16;;;;;;;12.37;8.83;;;;;;;14.48;83.85;102659.97;5084896;28;20035;-74
2022/08/08 04:24:42;;;;;;;14.60;8.83;;;;;;;14.48;83.92;102662.72;5075697;28;20045;-74
2022/08/08 04:27:07;;;;;;;13.03;7.77;;;;;;;14.46;83.56;102664.81;5083240;28;20412;-74
2022/08/08 04:29:32;;;;;;;10.70;7.60;;;;;;;14.44;83.78;102664.13;5075056;28;20025;-74
2022/08/08 04:31:58;;;;;;;20.27;8.67;;;;;;;14.48;83.52;102673.75;5108608;28;20108;-74
2022/08/08 04:34:23;;;;;;;13.80;8.03;;;;;;;14.50;84.18;102666.16;5090300;28;20362;-74
2022/08/08 04:36:49;;;;;;;13.10;8.20;;;;;;;14.51;83.81;102673.41;5113937;28;20088;-76
2022/08/08 04:39:15;;;;;;;11.80;7.53;;;;;;;14.59;84.19;102671.50;5074200;28;20046;-75
2022/08/08 04:41:40;;;;;;;13.20;7.60;;;;;;;14.66;83.91;102672.47;5110398;28;20023;-72
2022/08/08 04:44:06;;;;;;;11.23;6.80;;;;;;;14.75;82.52;102676.06;5088977;28;20035;-74
2022/08/08 04:46:31;;;;;;;13.47;7.07;;;;;;;14.70;83.08;102667.47;5105050;28;20050;-72
2022/08/08 04:48:57;;;;;;;10.37;7.53;;;;;;;14.65;83.25;102668.00;5095823;28;20023;-73
2022/08/08 04:51:22;;;;;;;11.57;7.87;;;;;;;14.71;84.00;102674.69;5100836;28;20380;-73
2022/08/08 04:53:48;;;;;;;13.97;7.70;;;;;;;14.75;83.31;102667.78;5102246;28;20403;-73
2022/08/08 04:56:15;;;;;;;11.77;7.60;;;;;;;14.74;84.04;102679.88;5110529;28;20034;-74
2022/08/08 04:58:41;;;;;;;13.27;7.60;;;;;;;14.82;83.81;102677.91;5088739;28;20031;-73
2022/08/08 05:01:06;;;;;;;12.20;7.50;;;;;;;14.84;83.91;102675.00;5101605;28;20463;-72
2022/08/08 05:03:32;;;;;;;13.97;7.50;;;;;;;14.86;84.19;102672.91;5111457;28;20042;-72
2022/08/08 05:05:57;;;;;;;11.93;7.47;;;;;;;14.87;83.61;102678.25;5096029;28;20028;-72
2022/08/08 05:08:25;;;;;;;9.93;6.80;;;;;;;14.93;83.38;102682.16;5096703;28;20032;-74
2022/08/08 05:10:51;;;;;;;12.77;7.78;;;;;;;14.89;84.05;102672.53;5097432;28;20024;-74
2022/08/08 05:13:16;;;;;;;15.00;7.93;;;;;;;14.98;83.51;102676.97;5094917;28;20498;-74
2022/08/08 05:15:41;;;;;;;11.17;7.20;;;;;;;15.01;84.26;102688.53;5074775;28;20470;-73
2022/08/08 05:18:06;;;;;;;19.37;8.20;;;;;;;15.12;83.79;102690.00;5074208;28;20020;-72
2022/08/08 05:20:32;;;;;;;18.57;7.37;;;;;;;15.12;83.24;102684.47;5108553;28;20043;-74
2022/08/08 05:22:57;;;;;;;18.67;7.57;;;;;;;15.17;82.62;102699.47;5085578;28;20023;-73
2022/08/08 05:25:22;;;;;;;14.77;7.77;;;;;;;15.28;82.56;102695.41;5073598;28;20432;-74
2022/08/08 05:27:48;;;;;;;10.93;6.87;;;;;;;15.33;83.06;102696.63;5105364;28;20031;-74
2022/08/08 05:30:13;;;;;;;11.93;6.97;;;;;;;15.40;82.46;102694.84;5078865;28;20031;-74
2022/08/08 05:32:38;;;;;;;11.60;6.30;;;;;;;15.59;81.69;102691.56;5076680;28;20032;-75
2022/08/08 05:35:04;;;;;;;13.73;6.10;;;;;;;15.60;81.52;102684.16;5103435;28;20035;-73
2022/08/08 05:37:33;;;;;;;16.05;7.40;;;;;;;15.68;81.32;102689.63;5101492;28;20419;-73
2022/08/08 05:40:03;;;;;;;13.70;6.50;;;;;;;15.80;81.08;102701.97;5094506;28;20072;-72
2022/08/08 05:42:44;;;;;;;14.38;6.22;;;;;;;15.84;80.92;102697.78;5104684;28;20034;-74
2022/08/08 05:45:13;;;;;;;8.73;5.82;;;;;;;15.94;80.22;102698.34;5077264;28;20035;-73
2022/08/08 05:47:40;;;;;;;10.18;5.43;;;;;;;15.96;80.78;102699.88;5095277;28;20027;-73
2022/08/08 05:50:06;;;;;;;9.45;5.90;;;;;;;16.05;80.08;102706.19;5097194;28;20036;-73
2022/08/08 05:52:36;;;;;;;15.10;6.32;;;;;;;16.19;79.79;102702.59;5091309;28;20040;-73
2022/08/08 05:55:06;;;;;;;8.88;5.03;;;;;;;16.26;80.06;102709.09;5090936;28;20036;-73
2022/08/08 05:57:34;;;;;;;11.90;5.88;;;;;;;16.25;79.84;102708.25;5103878;28;20060;-73
2022/08/08 06:00:05;;;;;;;9.95;5.53;;;;;;;16.33;79.93;102707.31;5091592;28;20027;-73
2022/08/08 06:05:18;;;;;;;7.60;4.47;;;;;;;16.61;78.51;102713.91;5096373;28;20043;-73
2022/08/08 06:07:46;;;;;;;13.05;5.35;;;;;;;16.70;78.23;102721.09;5091185;28;20054;-73
2022/08/08 06:10:12;;;;;;;8.07;5.30;;;;;;;16.75;78.21;102722.22;5098648;28;20039;-73
2022/08/08 06:12:37;;;;;;;8.43;4.13;;;;;;;16.82;78.09;102723.16;5062407;28;20040;-73
2022/08/08 06:15:05;;;;;;;10.20;4.50;;;;;;;16.89;77.89;102723.25;5091751;28;20277;-74
2022/08/08 06:17:32;;;;;;;11.95;5.10;;;;;;;16.88;77.46;102716.88;5106424;28;20098;-74
2022/08/08 06:20:01;;;;;;;9.30;4.15;;;;;;;17.09;76.15;102719.69;5095171;28;20415;-72
2022/08/08 06:22:26;;;;;;;8.00;4.22;;;;;;;17.53;74.85;102722.34;5076934;28;20086;-73
2022/08/08 06:24:52;;;;;;;10.60;3.67;;;;;;;17.37;74.80;102728.09;5079857;28;20036;-72
2022/08/08 06:27:40;;;;;;;8.43;3.60;;;;;;;17.54;74.33;102724.94;5099254;28;20031;-72
2022/08/08 06:30:08;;;;;;;6.90;4.13;;;;;;;17.60;73.83;102726.91;5095842;28;20046;-73
2022/08/08 06:32:57;;;;;;;9.88;4.10;;;;;;;18.71;70.48;102731.50;5083996;28;20024;-72
2022/08/08 06:35:23;;;;;;;8.20;3.38;;;;;;;20.11;65.19;102732.41;5089543;28;20066;-76
2022/08/08 06:37:56;;;;;;;8.80;3.97;;;;;;;21.11;63.49;102730.97;5072825;28;20028;-73
2022/08/08 06:40:27;;;;;;;5.63;2.92;;;;;;;21.21;61.59;102730.50;5107514;28;20544;-72
2022/08/08 06:43:06;;;;;;;5.85;3.17;;;;;;;21.78;60.46;102728.47;5093113;28;20425;-72
2022/08/08 06:45:32;;;;;;;7.03;2.70;;;;;;;22.15;57.53;102727.53;5111065;28;20028;-73
2022/08/08 06:47:58;;;;;;;;;;;;;;;22.71;58.10;102730.25;5111874;28;20042;-73
2022/08/08 06:50:23;;;;;;;5.10;2.90;;;;;;;22.73;57.46;102734.53;5088885;28;19920;-73
2022/08/08 06:52:49;;;;;;;8.90;3.00;;;;;;;23.06;55.39;102725.78;5098857;28;20035;-72
2022/08/08 06:55:15;;;;;;;5.25;2.42;;;;;;;22.83;55.95;102736.81;5083279;28;20375;-72
2022/08/08 06:57:40;;;;;;;6.07;2.80;;;;;;;23.43;55.38;102724.66;5093282;28;20511;-73
2022/08/08 07:00:06;;;;;;;4.93;2.43;;;;;;;23.71;54.19;102736.09;5073125;28;20042;-73
2022/08/08 07:02:34;;;;;;;7.07;2.88;;;;;;;23.40;53.43;102737.19;5092612;28;20032;-74
2022/08/08 07:05:09;;;;;;;9.07;2.60;;;;;;;23.62;53.61;102734.72;5093099;28;20521;-73
2022/08/08 07:07:46;;;;;;;7.78;2.90;;;;;;;24.03;53.29;102735.63;5093819;28;20023;-73
2022/08/08 07:10:18;;;;;;;4.88;2.60;;;;;;;23.80;52.33;102738.31;5090767;28;20441;-73
2022/08/08 07:12:50;;;;;;;6.28;2.33;;;;;;;24.01;53.50;102739.75;5083097;28;20039;-73
2022/08/08 07:15:16;;;;;;;6.57;2.80;;;;;;;23.70;52.63;102743.63;5093236;28;20046;-73
2022/08/08 07:17:47;;;;;;;6.63;2.47;;;;;;;24.05;52.16;102743.75;5081566;28;20024;-73
2022/08/08 07:20:19;;;;;;;5.93;2.50;;;;;;;23.97;52.03;102746.94;5098858;28;20467;-73
2022/08/08 07:23:00;;;;;;;7.10;2.50;;;;;;;24.22;51.88;102742.00;5098944;28;20024;-74
2022/08/08 07:25:26;;;;;;;7.70;2.55;;;;;;;23.24;52.90;102748.16;5089333;28;20067;-73
2022/08/08 07:28:02;;;;;;;7.22;2.83;;;;;;;23.75;51.95;102740.97;5072549;28;20066;-72
2022/08/08 07:30:27;;;;;;;13.60;2.78;;;;;;;23.66;53.05;102744.34;5093199;28;20527;-73
2022/08/08 07:32:54;;;;;;;8.40;2.83;;;;;;;24.02;52.00;102750.69;5090331;28;20114;-73
2022/08/08 07:35:20;;;;;;;9.93;2.80;;;;;;;23.84;51.13;102750.75;5091422;28;20047;-73
2022/08/08 07:37:48;;;;;;;7.10;2.50;;;;;;;23.93;51.69;102748.50;5097560;28;20036;-73
2022/08/08 07:40:15;;;;;;;6.50;3.38;;;;;;;23.60;53.29;102753.69;5070665;28;20046;-73
2022/08/08 07:42:42;;;;;;;8.73;2.50;;;;;;;23.61;52.71;102755.41;5089841;28;20534;-73
2022/08/08 07:45:07;;;;;;;5.13;1.95;;;;;;;23.17;53.86;102753.84;5084784;28;20054;-74
2022/08/08 07:47:33;;;;;;;5.63;2.08;;;;;;;23.88;52.80;102763.22;5107665;28;20474;-73
2022/08/08 07:49:58;;;;;;;8.00;2.33;;;;;;;23.34;53.47;102754.06;5096942;28;20034;-73
2022/08/08 07:52:25;;;;;;;7.87;2.67;;;;;;;23.39;51.89;102765.41;5071990;28;20053;-73
2022/08/08 07:55:01;;;;;;;5.72;2.25;;;;;;;23.29;53.62;102765.97;5071100;28;20028;-73
2022/08/08 07:57:46;;;;;;;6.82;2.50;;;;;;;23.28;52.08;102768.97;5090099;28;20067;-73
2022/08/08 08:00:14;;;;;;;8.02;2.20;;;;;;;23.06;52.74;102757.38;5095375;28;20081;-75
2022/08/08 08:02:43;;;;;;;11.48;2.78;;;;;;;23.09;52.41;102764.44;5109456;28;20039;-73
2022/08/08 08:05:17;;;;;;;4.45;1.75;;;;;;;23.03;53.16;102765.38;5093006;28;20036;-73
2022/08/08 08:07:46;;;;;;;7.50;2.30;;;;;;;22.91;52.70;102784.00;5090959;28;20487;-74
2022/08/08 08:10:16;;;;;;;8.38;2.15;;;;;;;23.05;53.40;102778.03;5105350;28;20036;-73
2022/08/08 08:12:52;;;;;;;8.93;2.78;;;;;;;22.60;54.16;102784.09;5107934;28;20027;-73
2022/08/08 08:15:23;;;;;;;8.63;2.47;;;;;;;22.44;54.95;102779.09;5072119;28;20032;-74
2022/08/08 08:17:49;;;;;;;5.05;2.65;;;;;;;22.47;55.14;102781.44;5090031;28;20032;-73
2022/08/08 08:20:17;;;;;;;8.75;2.03;;;;;;;22.82;54.40;102783.47;5103163;28;20114;-73
2022/08/08 08:22:42;;;;;;;5.82;2.20;;;;;;;22.92;54.34;102788.50;5100784;28;20421;-73
2022/08/08 08:25:08;;;;;;;3.37;1.90;;;;;;;22.86;53.38;102787.50;5093532;28;20028;-73
2022/08/08 08:27:33;;;;;;;6.97;2.15;;;;;;;22.87;54.14;102788.34;5095780;28;20448;-72
2022/08/08 08:29:58;;;;;;;4.53;2.00;;;;;;;22.47;56.20;102789.81;5104243;28;20077;-73
2022/08/08 08:32:24;;;;;;;7.33;2.00;;;;;;;22.67;54.29;102790.50;5102202;28;20032;-73
2022/08/08 08:34:51;;;;;;;8.25;1.90;;;;;;;22.61;53.84;102794.19;5096066;28;20122;-73
2022/08/08 08:37:16;;;;;;;;;;;;;;;22.06;55.30;102793.13;5094801;28;20027;-74
2022/08/08 08:39:41;;;;;;;7.55;2.40;;;;;;;22.37;54.15;102793.09;5073993;28;20257;-73
2022/08/08 08:42:07;;;;;;;5.37;2.40;;;;;;;22.31;54.62;102793.16;5097058;28;20510;-73
2022/08/08 08:44:33;;;;;;;4.97;2.13;;;;;;;22.92;54.26;102792.19;5097802;28;20040;-72
2022/08/08 08:47:01;;;;;;;11.18;2.05;;;;;;;23.32;53.21;102801.00;5098718;28;20032;-73
2022/08/08 08:49:27;;;;;;;4.68;1.80;;;;;;;23.08;52.41;102794.34;5070980;28;20035;-73
2022/08/08 08:51:57;;;;;;;5.87;1.87;;;;;;;23.25;52.13;102791.81;5081882;28;20028;-73
2022/08/08 08:54:24;;;;;;;7.82;2.08;;;;;;;23.04;52.49;102809.88;5098256;28;20338;-72
2022/08/08 08:56:50;;;;;;;5.38;2.10;;;;;;;22.92;51.92;102799.69;5076386;28;20069;-72
2022/08/08 08:59:16;;;;;;;5.50;1.75;;;;;;;23.17;52.43;102793.00;5109381;28;20509;-74
2022/08/08 09:01:43;;;;;;;5.43;1.60;;;;;;;23.30;51.28;102794.75;5091579;28;20027;-72
2022/08/08 09:04:12;;;;;;;4.97;1.52;;;;;;;23.53;50.46;102797.72;5109461;28;20115;-73
2022/08/08 09:06:40;;;;;;;3.15;1.40;;;;;;;23.49;51.76;102802.06;5089398;28;20119;-73
2022/08/08 09:09:10;;;;;;;5.10;2.10;;;;;;;23.74;51.07;102803.66;5088898;28;20486;-73
2022/08/08 09:11:35;;;;;;;2.80;1.35;;;;;;;;;;5093803;28;20115;-73
2022/08/08 09:14:02;;;;;;;4.07;1.77;;;;;;;24.22;48.85;102795.22;5082724;28;20432;-72
2022/08/08 09:16:29;;;;;;;8.38;3.00;;;;;;;24.27;48.98;102799.00;5099815;28;20039;-73
2022/08/08 09:18:56;;;;;;;4.40;1.67;;;;;;;23.83;49.13;102798.56;5073369;28;20547;-73
2022/08/08 09:21:22;;;;;;;5.95;1.80;;;;;;;24.17;48.65;102800.69;5090753;28;20028;-73
2022/08/08 09:23:48;;;;;;;6.82;1.73;;;;;;;24.47;48.04;102791.13;5103948;28;20035;-73
2022/08/08 09:26:42;;;;;;;6.07;1.60;;;;;;;23.45;50.24;102800.81;5076341;28;20054;-73
2022/08/08 09:29:16;;;;;;;14.70;1.67;;;;;;;23.10;50.81;102805.31;5078347;28;20031;-72
2022/08/08 09:32:09;;;;;;;6.15;1.52;;;;;;;22.72;51.15;102815.84;5094378;28;20115;-72
2022/08/08 09:34:37;;;;;;;3.83;1.58;;;;;;;22.73;50.56;102809.16;5080415;28;20032;-72
2022/08/08 09:37:07;;;;;;;1.83;1.10;;;;;;;22.38;51.66;102805.13;5077618;28;20482;-74
2022/08/08 09:40:05;;;;;;;3.80;1.20;;;;;;;23.45;51.08;102810.09;5078773;28;20063;-72
2022/08/08 09:42:39;;;;;;;5.68;1.42;;;;;;;23.75;47.73;102808.16;5090399;28;20065;-72
2022/08/08 09:45:07;;;;;;;6.18;1.50;;;;;;;23.33;48.76;102802.69;5092041;28;20020;-72
2022/08/08 09:47:41;;;;;;;2.60;1.40;;;;;;;23.80;47.67;102796.25;5076288;28;20117;-71
2022/08/08 09:50:15;;;;;;;3.95;1.10;;;;;;;24.28;45.55;102795.09;5091842;28;20540;-73
2022/08/08 09:52:48;;;;;;;4.05;1.08;;;;;;;24.41;46.00;102802.44;5072594;28;20024;-73
2022/08/08 09:55:13;;;;;;;4.05;1.45;;;;;;;24.81;44.83;102798.72;5072694;28;20032;-73
2022/08/08 09:57:40;;;;;;;4.27;1.30;;;;;;;24.99;45.10;102794.94;5077627;28;20038;-73
2022/08/08 10:00:11;;;;;;;4.90;1.42;;;;;;;24.86;45.32;102789.59;5105626;28;20050;-73
2022/08/08 10:02:43;;;;;;;5.80;1.30;;;;;;;25.39;44.92;102791.13;5100626;28;20054;-72
2022/08/08 10:05:12;;;;;;;3.25;1.17;;;;;;;25.16;43.16;102795.88;5088643;28;20067;-72
2022/08/08 10:07:51;;;;;;;2.55;1.08;;;;;;;25.44;42.61;102790.41;5083937;28;20515;-72
2022/08/08 10:10:27;;;;;;;2.28;1.33;;;;;;;25.40;42.40;102789.19;5092630;28;20114;-73
2022/08/08 10:12:53;;;;;;;6.03;1.27;;;;;;;24.95;42.66;102788.97;5100195;28;20031;-72
2022/08/08 10:15:19;;;;;;;3.10;1.15;;;;;;;24.94;43.78;102787.28;5094639;28;20061;-72
2022/08/08 10:17:49;;;;;;;4.25;1.40;;;;;;;24.81;44.38;102786.66;5088020;28;20479;-72
2022/08/08 10:20:15;;;;;;;8.73;1.90;;;;;;;24.57;44.94;102790.50;5092172;28;20020;-74
2022/08/08 10:23:03;;;;;;;6.37;1.23;;;;;;;24.32;46.79;102792.69;5072095;28;20619;-72
2022/08/08 10:25:29;;;;;;;4.90;1.25;;;;;;;24.43;45.73;102787.09;5073597;28;20748;-73
2022/08/08 10:27:55;;;;;;;4.80;1.40;;;;;;;23.94;46.89;102800.59;5110794;28;20031;-73
2022/08/08 10:30:22;;;;;;;5.43;1.50;;;;;;;23.89;47.69;102794.84;5072892;28;20036;-73
2022/08/08 10:32:56;;;;;;;5.68;1.60;;;;;;;23.57;47.86;102794.19;5095222;28;20032;-72
2022/08/08 10:35:25;;;;;;;2.78;1.38;;;;;;;23.54;48.93;102793.81;5072812;28;20030;-73
2022/08/08 10:37:50;;;;;;;2.30;1.02;;;;;;;23.93;47.70;102801.69;5090950;28;20081;-72
2022/08/08 10:40:16;;;;;;;2.30;1.23;;;;;;;23.86;46.56;102795.31;5105285;28;20128;-72
2022/08/08 10:42:42;;;;;;;4.82;1.73;;;;;;;24.05;46.69;102792.25;5090735;28;20463;-71
2022/08/08 10:45:09;;;;;;;3.55;1.30;;;;;;;24.20;46.10;102794.59;5108281;28;20035;-72
2022/08/08 10:47:35;;;;;;;3.90;1.48;;;;;;;24.02;46.20;102797.47;5107930;28;20027;-72
2022/08/08 10:50:03;;;;;;;;;;;;;;;23.84;46.41;102798.34;5094103;28;20496;-72
2022/08/08 10:52:31;;;;;;;;;;;;;;;23.91;46.86;102795.50;5081862;28;20015;-72
2022/08/08 10:54:58;;;;;;;2.08;1.23;;;;;;;24.04;46.49;102796.16;5095648;28;19919;-73
2022/08/08 10:57:24;;;;;;;4.38;1.83;;;;;;;24.38;45.16;102786.13;5074578;28;20028;-72
2022/08/08 10:59:57;;;;;;;3.53;1.30;;;;;;;25.16;43.94;102790.28;5090903;28;20081;-72
2022/08/08 11:02:25;;;;;;;5.80;1.40;;;;;;;25.28;43.38;102797.63;5090164;28;20406;-73
2022/08/08 11:04:50;;;;;;;4.90;1.45;;;;;;;25.87;43.70;102791.56;5090128;28;20106;-72
2022/08/08 11:07:37;;;;;;;4.13;1.20;;;;;;;25.99;42.24;102788.72;5095430;28;20444;-73
2022/08/08 11:10:13;;;;;;;2.17;1.58;;;;;;;25.13;43.89;102782.38;5090654;28;20039;-73
2022/08/08 11:12:47;;;;;;;2.20;1.30;;;;;;;25.01;44.58;102789.94;5090082;28;20104;-74
2022/08/08 11:15:15;;;;;;;2.75;1.33;;;;;;;24.94;43.86;102786.41;5089821;28;20054;-72
2022/08/08 11:17:41;;;;;;;3.80;1.40;;;;;;;24.91;43.84;102776.53;5096307;28;20078;-72
2022/08/08 11:20:08;;;;;;;;;;;;;;;24.68;45.38;102782.16;5072647;28;20375;-72
2022/08/08 11:22:35;;;;;;;8.20;1.50;;;;;;;24.37;46.46;102773.19;5088824;28;19916;-72
2022/08/08 11:25:03;;;;;;;1.40;1.30;;;;;;;24.04;47.55;102784.94;5076699;28;20662;-74
2022/08/08 11:27:31;;;;;;;4.78;1.60;;;;;;;23.65;47.70;102777.09;5102628;28;20808;-73
2022/08/08 11:29:59;;;;;;;5.60;1.60;;;;;;;23.90;47.87;102775.03;5090457;28;20520;-73
2022/08/08 11:32:26;;;;;;;3.65;1.30;;;;;;;24.87;45.94;102760.44;5092573;28;20028;-72
2022/08/08 11:35:05;;;;;;;3.80;1.67;;;;;;;25.52;45.80;102771.19;5076211;28;20024;-73
2022/08/08 11:37:32;;;;;;;6.30;2.15;;;;;;;25.48;44.30;102770.00;5110087;28;20459;-73
2022/08/08 11:40:00;;;;;;;5.47;1.50;;;;;;;25.95;43.18;102765.91;5107243;28;20031;-74
2022/08/08 11:42:27;;;;;;;3.97;1.55;;;;;;;26.29;41.91;102763.97;5086042;28;20532;-75
2022/08/08 11:44:55;;;;;;;4.53;1.40;;;;;;;26.31;41.37;102762.59;5090700;28;20032;-74
2022/08/08 11:47:22;;;;;;;8.85;1.70;;;;;;;26.71;40.89;102751.22;5098969;28;20030;-73
2022/08/08 11:49:50;;;;;;;;;;;;;;;26.09;41.22;102763.63;5106041;28;20442;-73
2022/08/08 11:52:16;;;;;;;4.57;1.52;;;;;;;25.49;42.52;102753.97;5071373;28;20353;-73
2022/08/08 11:54:43;;;;;;;;;;;;;;;25.12;44.11;102758.22;5101334;28;20064;-73
2022/08/08 11:57:10;;;;;;;12.60;2.05;;;;;;;25.51;43.18;102760.22;5095084;28;19919;-73
2022/08/08 11:59:42;;;;;;;4.63;2.03;;;;;;;25.45;43.52;102752.78;5078317;28;20073;-74
2022/08/08 12:02:07;;;;;;;4.30;1.85;;;;;;;25.28;44.92;102754.69;5107164;28;20543;-73
2022/08/08 12:04:36;;;;;;;3.33;1.50;;;;;;;24.73;44.87;102744.97;5095445;28;20123;-73